sensor_id;sensor_type;location;lat;lon;timestamp;pressure;altitude;pressure_sealevel;temperature;humidity
5753;BME280;2901;42.140;24.760;2024-02-21T00:00:08;100207.50;;;7.89;100.00
5753;BME280;2901;42.140;24.760;2024-02-21T00:02:34;100195.44;;;7.88;100.00
5753;BME280;2901;42.140;24.760;2024-02-21T00:05:00;100194.50;;;7.84;100.00
5753;BME280;2901;42.140;24.760;2024-02-21T00:07:25;100198.81;;;7.84;100.00
5753;BME280;2901;42.140;24.760;2024-02-21T00:09:50;100200.59;;;7.88;100.00
5753;BME280;2901;42.140;24.760;2024-02-21T00:12:16;100202.25;;;7.84;100.00
5753;BME280;2901;42.140;24.760;2024-02-21T00:14:41;100185.84;;;7.79;100.00
5753;BME280;2901;42.140;24.760;2024-02-21T00:17:07;100199.69;;;7.84;100.00
5753;BME280;2901;42.140;24.760;2024-02-21T00:19:33;100194.44;;;7.78;100.00
5753;BME280;2901;42.140;24.760;2024-02-21T00:21:59;100197.09;;;7.83;100.00
5753;BME280;2901;42.140;24.760;2024-02-21T00:24:24;100195.38;;;7.85;100.00
5753;BME280;2901;42.140;24.760;2024-02-21T00:26:50;100191.06;;;7.84;100.00
5753;BME280;2901;42.140;24.760;2024-02-21T00:29:15;100192.84;;;7.87;100.00
5753;BME280;2901;42.140;24.760;2024-02-21T00:31:40;100187.75;;;7.91;100.00
5753;BME280;2901;42.140;24.760;2024-02-21T00:34:06;100186.13;;;7.98;100.00
5753;BME280;2901;42.140;24.760;2024-02-21T00:36:32;100186.25;;;8.05;100.00
5753;BME280;2901;42.140;24.760;2024-02-21T00:38:57;100173.25;;;7.99;100.00
5753;BME280;2901;42.140;24.760;2024-02-21T00:41:23;100173.31;;;8.04;100.00
5753;BME280;2901;42.140;24.760;2024-02-21T00:43:48;100165.63;;;8.07;100.00
5753;BME280;2901;42.140;24.760;2024-02-21T00:46:15;100165.72;;;8.13;100.00
5753;BME280;2901;42.140;24.760;2024-02-21T00:48:40;100178.63;;;8.14;100.00
5753;BME280;2901;42.140;24.760;2024-02-21T00:51:06;100162.25;;;8.09;100.00
5753;BME280;2901;42.140;24.760;2024-02-21T00:53:31;100163.91;;;8.06;100.00
5753;BME280;2901;42.140;24.760;2024-02-21T00:55:56;100168.16;;;8.02;100.00
5753;BME280;2901;42.140;24.760;2024-02-21T00:58:22;100165.44;;;7.93;100.00
5753;BME280;2901;42.140;24.760;2024-02-21T01:00:47;100167.09;;;7.90;100.00
5753;BME280;2901;42.140;24.760;2024-02-21T01:03:13;100165.31;;;7.87;100.00
5753;BME280;2901;42.140;24.760;2024-02-21T01:05:38;100158.38;;;7.80;100.00
5753;BME280;2901;42.140;24.760;2024-02-21T01:08:04;100162.69;;;7.82;100.00
5753;BME280;2901;42.140;24.760;2024-02-21T01:10:29;100155.78;;;7.80;100.00
5753;BME280;2901;42.140;24.760;2024-02-21T01:12:55;100152.31;;;7.76;100.00
5753;BME280;2901;42.140;24.760;2024-02-21T01:15:20;100150.59;;;7.77;100.00
5753;BME280;2901;42.140;24.760;2024-02-21T01:17:46;100156.78;;;7.90;100.00
5753;BME280;2901;42.140;24.760;2024-02-21T01:20:11;100154.22;;;7.91;100.00
5753;BME280;2901;42.140;24.760;2024-02-21T01:22:37;100150.06;;;7.99;100.00
5753;BME280;2901;42.140;24.760;2024-02-21T01:25:02;100147.53;;;8.02;100.00
5753;BME280;2901;42.140;24.760;2024-02-21T01:27:27;100142.44;;;8.08;100.00
5753;BME280;2901;42.140;24.760;2024-02-21T01:29:53;100143.38;;;8.13;100.00
5753;BME280;2901;42.140;24.760;2024-02-21T01:32:18;100145.97;;;8.13;100.00
5753;BME280;2901;42.140;24.760;2024-02-21T01:34:44;100130.56;;;8.19;100.00
5753;BME280;2901;42.140;24.760;2024-02-21T01:37:09;100132.38;;;8.26;100.00
5753;BME280;2901;42.140;24.760;2024-02-21T01:39:34;100128.06;;;8.27;100.00
5753;BME280;2901;42.140;24.760;2024-02-21T01:42:00;100125.63;;;8.33;100.00
5753;BME280;2901;42.140;24.760;2024-02-21T01:44:25;100128.31;;;8.42;100.00
5753;BME280;2901;42.140;24.760;2024-02-21T01:46:52;100121.50;;;8.50;100.00
5753;BME280;2901;42.140;24.760;2024-02-21T01:49:19;100127.63;;;8.60;100.00
5753;BME280;2901;42.140;24.760;2024-02-21T01:51:45;100123.38;;;8.62;100.00
5753;BME280;2901;42.140;24.760;2024-02-21T01:54:13;100128.59;;;8.69;100.00
5753;BME280;2901;42.140;24.760;2024-02-21T01:56:39;100114.03;;;8.76;100.00
5753;BME280;2901;42.140;24.760;2024-02-21T01:59:04;100120.16;;;8.81;100.00
5753;BME280;2901;42.140;24.760;2024-02-21T02:01:30;100121.91;;;8.85;100.00
5753;BME280;2901;42.140;24.760;2024-02-21T02:03:55;100123.63;;;8.86;100.00
5753;BME280;2901;42.140;24.760;2024-02-21T02:06:21;100129.66;;;8.85;100.00
5753;BME280;2901;42.140;24.760;2024-02-21T02:08:46;100124.53;;;8.88;100.00
5753;BME280;2901;42.140;24.760;2024-02-21T02:11:13;100132.31;;;8.91;100.00
5753;BME280;2901;42.140;24.760;2024-02-21T02:13:39;100121.16;;;8.97;100.00
5753;BME280;2901;42.140;24.760;2024-02-21T02:16:05;100115.06;;;8.90;100.00
5753;BME280;2901;42.140;24.760;2024-02-21T02:18:30;100113.28;;;8.84;100.00
5753;BME280;2901;42.140;24.760;2024-02-21T02:20:55;100118.47;;;8.84;100.00
5753;BME280;2901;42.140;24.760;2024-02-21T02:23:25;100122.81;;;8.89;100.00
5753;BME280;2901;42.140;24.760;2024-02-21T02:25:51;100112.38;;;8.82;100.00
5753;BME280;2901;42.140;24.760;2024-02-21T02:28:17;100120.94;;;8.77;100.00
5753;BME280;2901;42.140;24.760;2024-02-21T02:30:43;100118.41;;;8.78;100.00
5753;BME280;2901;42.140;24.760;2024-02-21T02:33:09;100120.97;;;8.80;100.00
5753;BME280;2901;42.140;24.760;2024-02-21T02:35:35;100127.03;;;8.82;100.00
5753;BME280;2901;42.140;24.760;2024-02-21T02:38:02;100117.56;;;8.81;100.00
5753;BME280;2901;42.140;24.760;2024-02-21T02:40:27;100121.91;;;8.85;100.00
5753;BME280;2901;42.140;24.760;2024-02-21T02:42:53;100127.06;;;8.85;100.00
5753;BME280;2901;42.140;24.760;2024-02-21T02:45:21;100127.03;;;8.83;100.00
5753;BME280;2901;42.140;24.760;2024-02-21T02:47:48;100125.31;;;8.82;100.00
5753;BME280;2901;42.140;24.760;2024-02-21T02:50:14;100117.56;;;8.81;100.00
5753;BME280;2901;42.140;24.760;2024-02-21T02:52:40;100124.38;;;8.76;100.00
5753;BME280;2901;42.140;24.760;2024-02-21T02:55:05;100119.25;;;8.77;100.00
5753;BME280;2901;42.140;24.760;2024-02-21T02:57:31;100126.16;;;8.80;100.00
5753;BME280;2901;42.140;24.760;2024-02-21T02:59:57;100119.22;;;8.76;100.00
5753;BME280;2901;42.140;24.760;2024-02-21T03:02:22;100125.25;;;8.75;100.00
5753;BME280;2901;42.140;24.760;2024-02-21T03:04:48;100119.19;;;8.73;100.00
5753;BME280;2901;42.140;24.760;2024-02-21T03:07:14;100112.31;;;8.72;100.00
5753;BME280;2901;42.140;24.760;2024-02-21T03:09:40;100124.44;;;8.80;100.00
5753;BME280;2901;42.140;24.760;2024-02-21T03:12:06;100117.50;;;8.75;100.00
5753;BME280;2901;42.140;24.760;2024-02-21T03:14:32;100118.34;;;8.72;100.00
5753;BME280;2901;42.140;24.760;2024-02-21T03:16:58;100121.00;;;8.81;100.00
5753;BME280;2901;42.140;24.760;2024-02-21T03:19:24;100115.81;;;8.78;100.00
5753;BME280;2901;42.140;24.760;2024-02-21T03:21:50;100115.94;;;8.89;100.00
5753;BME280;2901;42.140;24.760;2024-02-21T03:24:16;100112.50;;;8.93;100.00
5753;BME280;2901;42.140;24.760;2024-02-21T03:26:41;100118.53;;;8.89;100.00
5753;BME280;2901;42.140;24.760;2024-02-21T03:29:07;100112.41;;;8.84;100.00
5753;BME280;2901;42.140;24.760;2024-02-21T03:31:33;100114.94;;;8.79;100.00
5753;BME280;2901;42.140;24.760;2024-02-21T03:33:58;100119.28;;;8.79;100.00
5753;BME280;2901;42.140;24.760;2024-02-21T03:36:24;100107.94;;;8.68;100.00
5753;BME280;2901;42.140;24.760;2024-02-21T03:38:49;100096.63;;;8.57;100.00
5753;BME280;2901;42.140;24.760;2024-02-21T03:41:14;100105.25;;;8.56;100.00
5753;BME280;2901;42.140;24.760;2024-02-21T03:43:40;100109.56;;;8.60;100.00
5753;BME280;2901;42.140;24.760;2024-02-21T03:46:06;100102.69;;;8.60;100.00
5753;BME280;2901;42.140;24.760;2024-02-21T03:48:32;100108.75;;;8.64;100.00
5753;BME280;2901;42.140;24.760;2024-02-21T03:50:58;100107.97;;;8.71;100.00
5753;BME280;2901;42.140;24.760;2024-02-21T03:53:23;100107.13;;;8.69;100.00
5753;BME280;2901;42.140;24.760;2024-02-21T03:55:49;100107.09;;;8.66;100.00
5753;BME280;2901;42.140;24.760;2024-02-21T03:58:14;100108.75;;;8.64;100.00
5753;BME280;2901;42.140;24.760;2024-02-21T04:00:39;100120.78;;;8.63;100.00
5753;BME280;2901;42.140;24.760;2024-02-21T04:03:05;100112.13;;;8.57;100.00
5753;BME280;2901;42.140;24.760;2024-02-21T04:05:31;100106.09;;;8.55;100.00
5753;BME280;2901;42.140;24.760;2024-02-21T04:07:57;100105.06;;;8.41;100.00
5753;BME280;2901;42.140;24.760;2024-02-21T04:10:22;100113.72;;;8.46;100.00
5753;BME280;2901;42.140;24.760;2024-02-21T04:12:48;100113.75;;;8.49;100.00
5753;BME280;2901;42.140;24.760;2024-02-21T04:15:18;100119.84;;;8.57;100.00
5753;BME280;2901;42.140;24.760;2024-02-21T04:17:44;100117.38;;;8.64;100.00
5753;BME280;2901;42.140;24.760;2024-02-21T04:20:14;100120.75;;;8.60;100.00
5753;BME280;2901;42.140;24.760;2024-02-21T04:22:40;100118.16;;;8.56;100.00
5753;BME280;2901;42.140;24.760;2024-02-21T04:25:06;100126.59;;;8.43;100.00
5753;BME280;2901;42.140;24.760;2024-02-21T04:27:32;100123.78;;;8.26;100.00
5753;BME280;2901;42.140;24.760;2024-02-21T04:29:57;100123.50;;;8.08;100.00
5753;BME280;2901;42.140;24.760;2024-02-21T04:32:23;100129.19;;;7.82;100.00
5753;BME280;2901;42.140;24.760;2024-02-21T04:34:48;100135.88;;;7.71;100.00
5753;BME280;2901;42.140;24.760;2024-02-21T04:37:13;100134.81;;;7.57;100.00
5753;BME280;2901;42.140;24.760;2024-02-21T04:39:39;100148.50;;;7.55;100.00
5753;BME280;2901;42.140;24.760;2024-02-21T04:42:04;100144.09;;;7.46;100.00
5753;BME280;2901;42.140;24.760;2024-02-21T04:44:30;100150.84;;;7.41;100.00
5753;BME280;2901;42.140;24.760;2024-02-21T04:46:55;100146.34;;;7.28;100.00
5753;BME280;2901;42.140;24.760;2024-02-21T04:49:20;100155.75;;;7.26;100.00
5753;BME280;2901;42.140;24.760;2024-02-21T04:51:46;100143.75;;;7.28;100.00
5753;BME280;2901;42.140;24.760;2024-02-21T04:54:11;100161.94;;;7.36;100.00
5753;BME280;2901;42.140;24.760;2024-02-21T04:56:36;100157.75;;;7.42;100.00
5753;BME280;2901;42.140;24.760;2024-02-21T04:59:02;100162.22;;;7.51;100.00
5753;BME280;2901;42.140;24.760;2024-02-21T05:01:30;100158.72;;;7.49;100.00
5753;BME280;2901;42.140;24.760;2024-02-21T05:03:56;100165.53;;;7.45;100.00
5753;BME280;2901;42.140;24.760;2024-02-21T05:06:21;100173.28;;;7.47;100.00
5753;BME280;2901;42.140;24.760;2024-02-21T05:08:47;100166.50;;;7.52;100.00
5753;BME280;2901;42.140;24.760;2024-02-21T05:11:13;100165.63;;;7.51;100.00
5753;BME280;2901;42.140;24.760;2024-02-21T05:13:38;100170.78;;;7.50;100.00
5753;BME280;2901;42.140;24.760;2024-02-21T05:16:04;100179.28;;;7.46;100.00
5753;BME280;2901;42.140;24.760;2024-02-21T05:18:29;100186.91;;;7.41;100.00
5753;BME280;2901;42.140;24.760;2024-02-21T05:20:55;100173.13;;;7.38;100.00
5753;BME280;2901;42.140;24.760;2024-02-21T05:23:20;100185.31;;;7.46;100.00
5753;BME280;2901;42.140;24.760;2024-02-21T05:25:45;100173.41;;;7.54;100.00
5753;BME280;2901;42.140;24.760;2024-02-21T05:28:11;100171.78;;;7.59;100.00
5753;BME280;2901;42.140;24.760;2024-02-21T05:30:36;100171.09;;;7.71;100.00
5753;BME280;2901;42.140;24.760;2024-02-21T05:33:05;100173.00;;;7.82;100.00
5753;BME280;2901;42.140;24.760;2024-02-21T05:35:31;100173.16;;;7.92;100.00
5753;BME280;2901;42.140;24.760;2024-02-21T05:37:57;100175.81;;;7.96;100.00
5753;BME280;2901;42.140;24.760;2024-02-21T05:40:22;100175.84;;;8.01;100.00
5753;BME280;2901;42.140;24.760;2024-02-21T05:42:48;100190.56;;;8.08;100.00
5753;BME280;2901;42.140;24.760;2024-02-21T05:45:13;100191.44;;;8.08;100.00
5753;BME280;2901;42.140;24.760;2024-02-21T05:47:41;100193.97;;;8.05;100.00
5753;BME280;2901;42.140;24.760;2024-02-21T05:50:06;100191.53;;;8.13;100.00
5753;BME280;2901;42.140;24.760;2024-02-21T05:52:32;100193.34;;;8.21;100.00
5753;BME280;2901;42.140;24.760;2024-02-21T05:54:57;100196.88;;;8.26;100.00
5753;BME280;2901;42.140;24.760;2024-02-21T05:57:23;100195.22;;;8.30;100.00
5753;BME280;2901;42.140;24.760;2024-02-21T05:59:48;100196.28;;;8.44;100.00
5753;BME280;2901;42.140;24.760;2024-02-21T06:02:13;100200.69;;;8.51;100.00
5753;BME280;2901;42.140;24.760;2024-02-21T06:04:39;100200.78;;;8.59;100.00
5753;BME280;2901;42.140;24.760;2024-02-21T06:07:04;100196.53;;;8.64;100.00
5753;BME280;2901;42.140;24.760;2024-02-21T06:09:30;100205.13;;;8.63;100.00
5753;BME280;2901;42.140;24.760;2024-02-21T06:11:55;100210.25;;;8.60;100.00
5753;BME280;2901;42.140;24.760;2024-02-21T06:14:21;100208.56;;;8.62;100.00
5753;BME280;2901;42.140;24.760;2024-02-21T06:16:46;100209.47;;;8.65;100.00
5753;BME280;2901;42.140;24.760;2024-02-21T06:19:11;100206.16;;;8.75;100.00
5753;BME280;2901;42.140;24.760;2024-02-21T06:21:37;100209.69;;;8.82;100.00
5753;BME280;2901;42.140;24.760;2024-02-21T06:24:03;100226.16;;;8.93;100.00
5753;BME280;2901;42.140;24.760;2024-02-21T06:26:29;100218.44;;;8.96;100.00
5753;BME280;2901;42.140;24.760;2024-02-21T06:28:54;100221.03;;;8.96;100.00
5753;BME280;2901;42.140;24.760;2024-02-21T06:31:19;100217.69;;;9.06;100.00
5753;BME280;2901;42.140;24.760;2024-02-21T06:33:45;100223.81;;;9.16;100.00
5753;BME280;2901;42.140;24.760;2024-02-21T06:36:10;100225.69;;;9.29;100.00
5753;BME280;2901;42.140;24.760;2024-02-21T06:38:35;100220.59;;;9.36;100.00
5753;BME280;2901;42.140;24.760;2024-02-21T06:41:01;100213.84;;;9.51;100.00
5753;BME280;2901;42.140;24.760;2024-02-21T06:43:27;100221.72;;;9.63;100.00
5753;BME280;2901;42.140;24.760;2024-02-21T06:45:53;100218.41;;;9.77;100.00
5753;BME280;2901;42.140;24.760;2024-02-21T06:48:19;100215.00;;;9.83;100.00
5753;BME280;2901;42.140;24.760;2024-02-21T06:50:45;100218.53;;;9.91;100.00
5753;BME280;2901;42.140;24.760;2024-02-21T06:53:10;100220.34;;;10.06;100.00
5753;BME280;2901;42.140;24.760;2024-02-21T06:55:36;100232.50;;;10.16;100.00
5753;BME280;2901;42.140;24.760;2024-02-21T06:58:01;100225.56;;;10.13;100.00
5753;BME280;2901;42.140;24.760;2024-02-21T07:00:28;100230.75;;;10.13;100.00
5753;BME280;2901;42.140;24.760;2024-02-21T07:02:54;100233.28;;;10.04;100.00
5753;BME280;2901;42.140;24.760;2024-02-21T07:05:19;100227.25;;;10.07;100.00
5753;BME280;2901;42.140;24.760;2024-02-21T07:07:45;100224.53;;;9.91;100.00
5753;BME280;2901;42.140;24.760;2024-02-21T07:10:10;100230.69;;;10.04;100.00
5753;BME280;2901;42.140;24.760;2024-02-21T07:12:36;100227.19;;;9.98;100.00
5753;BME280;2901;42.140;24.760;2024-02-21T07:15:04;100224.53;;;9.90;100.00
5753;BME280;2901;42.140;24.760;2024-02-21T07:17:30;100216.72;;;9.81;100.00
5753;BME280;2901;42.140;24.760;2024-02-21T07:19:55;100214.94;;;9.77;100.00
5753;BME280;2901;42.140;24.760;2024-02-21T07:22:24;100226.16;;;9.77;99.34
5753;BME280;2901;42.140;24.760;2024-02-21T07:24:49;100226.13;;;9.76;100.00
5753;BME280;2901;42.140;24.760;2024-02-21T07:27:17;100227.91;;;9.80;100.00
5753;BME280;2901;42.140;24.760;2024-02-21T07:29:42;100227.06;;;9.82;98.82
5753;BME280;2901;42.140;24.760;2024-02-21T07:32:12;100230.53;;;9.86;99.41
5753;BME280;2901;42.140;24.760;2024-02-21T07:34:37;100217.50;;;9.75;100.00
5753;BME280;2901;42.140;24.760;2024-02-21T07:37:03;100232.28;;;9.88;99.52
5753;BME280;2901;42.140;24.760;2024-02-21T07:39:29;100227.06;;;9.81;99.80
5753;BME280;2901;42.140;24.760;2024-02-21T07:41:55;100231.44;;;9.91;100.00
5753;BME280;2901;42.140;24.760;2024-02-21T07:44:20;100231.59;;;10.11;100.00
5753;BME280;2901;42.140;24.760;2024-02-21T07:46:45;100232.53;;;10.17;99.41
5753;BME280;2901;42.140;24.760;2024-02-21T07:49:11;100231.72;;;10.23;98.79
5753;BME280;2901;42.140;24.760;2024-02-21T07:51:36;100236.97;;;10.33;97.19
5753;BME280;2901;42.140;24.760;2024-02-21T07:54:02;100242.06;;;10.24;98.17
5753;BME280;2901;42.140;24.760;2024-02-21T07:56:29;100237.78;;;10.29;97.19
5753;BME280;2901;42.140;24.760;2024-02-21T07:58:54;100235.31;;;10.51;98.50
5753;BME280;2901;42.140;24.760;2024-02-21T08:01:20;100234.56;;;10.67;97.31
5753;BME280;2901;42.140;24.760;2024-02-21T08:03:46;100234.56;;;10.67;94.84
5753;BME280;2901;42.140;24.760;2024-02-21T08:06:12;100228.50;;;10.71;97.08
5753;BME280;2901;42.140;24.760;2024-02-21T08:08:38;100237.22;;;10.85;94.44
5753;BME280;2901;42.140;24.760;2024-02-21T08:11:04;100234.50;;;10.64;93.90
5753;BME280;2901;42.140;24.760;2024-02-21T08:13:29;100226.81;;;10.73;95.48
5753;BME280;2901;42.140;24.760;2024-02-21T08:15:55;100229.44;;;10.82;95.03
5753;BME280;2901;42.140;24.760;2024-02-21T08:18:21;100229.47;;;10.94;94.95
5753;BME280;2901;42.140;24.760;2024-02-21T08:20:46;100225.25;;;11.19;94.78
5753;BME280;2901;42.140;24.760;2024-02-21T08:23:12;100227.88;;;11.29;92.72
5753;BME280;2901;42.140;24.760;2024-02-21T08:25:37;100233.00;;;11.08;93.19
5753;BME280;2901;42.140;24.760;2024-02-21T08:28:02;100242.44;;;10.94;92.05
5753;BME280;2901;42.140;24.760;2024-02-21T08:30:28;100238.97;;;10.90;92.58
5753;BME280;2901;42.140;24.760;2024-02-21T08:32:53;100239.84;;;11.00;92.50
5753;BME280;2901;42.140;24.760;2024-02-21T08:35:19;100238.19;;;11.08;91.44
5753;BME280;2901;42.140;24.760;2024-02-21T08:37:47;100239.09;;;11.30;92.75
5753;BME280;2901;42.140;24.760;2024-02-21T08:40:13;100247.78;;;11.53;89.35
5753;BME280;2901;42.140;24.760;2024-02-21T08:42:39;100233.06;;;11.35;88.02
5753;BME280;2901;42.140;24.760;2024-02-21T08:45:04;100248.63;;;11.38;87.36
5753;BME280;2901;42.140;24.760;2024-02-21T08:47:30;100253.00;;;11.55;87.11
5753;BME280;2901;42.140;24.760;2024-02-21T08:49:55;100248.66;;;11.48;87.10
5753;BME280;2901;42.140;24.760;2024-02-21T08:52:21;100252.06;;;11.37;86.54
5753;BME280;2901;42.140;24.760;2024-02-21T08:54:46;100252.09;;;11.36;86.48
5753;BME280;2901;42.140;24.760;2024-02-21T08:57:12;100247.75;;;11.33;88.20
5753;BME280;2901;42.140;24.760;2024-02-21T08:59:39;100251.22;;;11.37;88.07
5753;BME280;2901;42.140;24.760;2024-02-21T09:02:04;100252.09;;;11.40;89.56
5753;BME280;2901;42.140;24.760;2024-02-21T09:04:32;100256.41;;;11.40;87.83
5753;BME280;2901;42.140;24.760;2024-02-21T09:06:57;100250.34;;;11.30;88.19
5753;BME280;2901;42.140;24.760;2024-02-21T09:09:23;100257.25;;;11.33;88.78
5753;BME280;2901;42.140;24.760;2024-02-21T09:11:48;100244.25;;;11.16;88.17
5753;BME280;2901;42.140;24.760;2024-02-21T09:14:14;100247.72;;;11.18;88.54
5753;BME280;2901;42.140;24.760;2024-02-21T09:16:39;100245.13;;;11.27;88.71
5753;BME280;2901;42.140;24.760;2024-02-21T09:19:04;100245.16;;;11.33;88.59
5753;BME280;2901;42.140;24.760;2024-02-21T09:21:30;100235.63;;;11.22;89.57
5753;BME280;2901;42.140;24.760;2024-02-21T09:23:55;100246.03;;;11.41;89.18
5753;BME280;2901;42.140;24.760;2024-02-21T09:26:20;100222.72;;;11.61;87.62
5753;BME280;2901;42.140;24.760;2024-02-21T09:28:46;100244.41;;;11.84;86.37
5753;BME280;2901;42.140;24.760;2024-02-21T09:31:11;100231.44;;;11.95;85.55
5753;BME280;2901;42.140;24.760;2024-02-21T09:33:37;100233.16;;;12.11;86.17
5753;BME280;2901;42.140;24.760;2024-02-21T09:36:02;100233.13;;;12.19;83.86
5753;BME280;2901;42.140;24.760;2024-02-21T09:38:30;100231.38;;;12.30;84.12
5753;BME280;2901;42.140;24.760;2024-02-21T09:41:04;100233.97;;;12.33;83.86
5753;BME280;2901;42.140;24.760;2024-02-21T09:43:32;100233.09;;;12.44;83.30
5753;BME280;2901;42.140;24.760;2024-02-21T09:45:59;100213.09;;;12.62;83.10
5753;BME280;2901;42.140;24.760;2024-02-21T09:48:34;100226.88;;;12.92;78.87
5753;BME280;2901;42.140;24.760;2024-02-21T09:51:04;100218.13;;;13.04;78.65
5753;BME280;2901;42.140;24.760;2024-02-21T09:53:32;100215.56;;;13.10;75.96
5753;BME280;2901;42.140;24.760;2024-02-21T09:55:58;100225.88;;;13.22;73.10
5753;BME280;2901;42.140;24.760;2024-02-21T09:58:25;100224.19;;;13.12;73.17
5753;BME280;2901;42.140;24.760;2024-02-21T10:00:52;100220.72;;;13.12;74.23
5753;BME280;2901;42.140;24.760;2024-02-21T10:03:18;100211.22;;;13.03;72.24
5753;BME280;2901;42.140;24.760;2024-02-21T10:05:47;100216.44;;;13.00;73.12
5753;BME280;2901;42.140;24.760;2024-02-21T10:08:15;100212.94;;;13.01;74.40
5753;BME280;2901;42.140;24.760;2024-02-21T10:10:44;100212.06;;;13.05;72.45
5753;BME280;2901;42.140;24.760;2024-02-21T10:13:11;;;;13.13;
5753;BME280;2901;42.140;24.760;2024-02-21T10:15:47;100198.22;;;13.09;70.31
5753;BME280;2901;42.140;24.760;2024-02-21T10:18:17;100202.56;;;13.02;70.59
5753;BME280;2901;42.140;24.760;2024-02-21T10:20:43;100196.47;;;13.11;70.37
5753;BME280;2901;42.140;24.760;2024-02-21T10:23:09;100193.81;;;13.22;70.39
5753;BME280;2901;42.140;24.760;2024-02-21T10:25:37;100188.56;;;13.29;69.64
5753;BME280;2901;42.140;24.760;2024-02-21T10:28:13;100179.75;;;13.48;68.44
5753;BME280;2901;42.140;24.760;2024-02-21T10:30:52;100181.38;;;13.60;68.63
5753;BME280;2901;42.140;24.760;2024-02-21T10:33:18;100159.63;;;13.72;68.00
5753;BME280;2901;42.140;24.760;2024-02-21T10:35:47;100159.44;;;13.91;68.30
5753;BME280;2901;42.140;24.760;2024-02-21T10:38:13;100153.13;;;14.15;65.96
5753;BME280;2901;42.140;24.760;2024-02-21T10:40:38;100158.16;;;14.35;61.86
5753;BME280;2901;42.140;24.760;2024-02-21T10:43:05;100151.97;;;14.43;62.07
5753;BME280;2901;42.140;24.760;2024-02-21T10:45:35;100147.78;;;14.29;61.05
5753;BME280;2901;42.140;24.760;2024-02-21T10:48:08;100146.97;;;14.21;60.77
5753;BME280;2901;42.140;24.760;2024-02-21T10:53:20;100123.75;;;13.99;61.25
5753;BME280;2901;42.140;24.760;2024-02-21T10:55:59;100135.00;;;14.04;61.53
5753;BME280;2901;42.140;24.760;2024-02-21T10:58:27;100125.38;;;14.13;61.96
5753;BME280;2901;42.140;24.760;2024-02-21T11:00:55;100108.06;;;14.09;62.12
5753;BME280;2901;42.140;24.760;2024-02-21T11:03:21;100119.31;;;14.12;60.61
5753;BME280;2901;42.140;24.760;2024-02-21T11:05:47;100107.78;;;14.30;60.41
5753;BME280;2901;42.140;24.760;2024-02-21T11:08:13;100116.34;;;14.45;59.89
5753;BME280;2901;42.140;24.760;2024-02-21T11:10:39;100101.47;;;14.55;58.42
5753;BME280;2901;42.140;24.760;2024-02-21T11:13:07;100099.59;;;14.65;58.45
5753;BME280;2901;42.140;24.760;2024-02-21T11:15:33;100101.84;;;14.89;57.50
5753;BME280;2901;42.140;24.760;2024-02-21T11:17:59;100103.47;;;14.97;56.25
5753;BME280;2901;42.140;24.760;2024-02-21T11:20:37;100092.94;;;15.03;56.09
5753;BME280;2901;42.140;24.760;2024-02-21T11:23:03;100109.16;;;15.22;55.33
5753;BME280;2901;42.140;24.760;2024-02-21T11:25:29;100097.47;;;15.47;53.60
5753;BME280;2901;42.140;24.760;2024-02-21T11:28:05;100094.09;;;15.39;53.50
5753;BME280;2901;42.140;24.760;2024-02-21T11:30:33;100081.81;;;15.44;53.66
5753;BME280;2901;42.140;24.760;2024-02-21T11:33:03;100085.28;;;15.48;53.29
5753;BME280;2901;42.140;24.760;2024-02-21T11:35:32;100083.31;;;15.62;53.06
5753;BME280;2901;42.140;24.760;2024-02-21T11:38:10;100076.22;;;15.70;52.77
5753;BME280;2901;42.140;24.760;2024-02-21T11:40:40;100076.22;;;15.70;52.60
5753;BME280;2901;42.140;24.760;2024-02-21T11:43:06;100080.94;;;15.45;53.75
5753;BME280;2901;42.140;24.760;2024-02-21T11:45:31;100080.34;;;15.28;52.31
5753;BME280;2901;42.140;24.760;2024-02-21T11:47:59;100089.28;;;15.15;52.88
5753;BME280;2901;42.140;24.760;2024-02-21T11:50:26;100086.59;;;15.21;52.61
5753;BME280;2901;42.140;24.760;2024-02-21T11:52:54;100069.41;;;15.05;51.57
5753;BME280;2901;42.140;24.760;2024-02-21T11:55:20;100072.94;;;15.04;51.72
5753;BME280;2901;42.140;24.760;2024-02-21T11:57:47;100081.53;;;15.09;52.06
5753;BME280;2901;42.140;24.760;2024-02-21T12:00:14;100065.00;;;15.10;52.05
5753;BME280;2901;42.140;24.760;2024-02-21T12:02:41;100051.91;;;15.15;52.45
5753;BME280;2901;42.140;24.760;2024-02-21T12:05:07;100057.31;;;15.56;51.71
5753;BME280;2901;42.140;24.760;2024-02-21T12:07:32;100050.00;;;15.75;49.72
5753;BME280;2901;42.140;24.760;2024-02-21T12:10:01;100040.22;;;15.84;49.84
5753;BME280;2901;42.140;24.760;2024-02-21T12:12:28;100047.59;;;16.10;48.88
5753;BME280;2901;42.140;24.760;2024-02-21T12:14:57;100039.34;;;15.85;48.64
5753;BME280;2901;42.140;24.760;2024-02-21T12:17:23;100031.03;;;15.67;49.33
5753;BME280;2901;42.140;24.760;2024-02-21T12:19:50;100036.25;;;15.65;49.20
5753;BME280;2901;42.140;24.760;2024-02-21T12:22:18;100017.16;;;15.63;49.43
5753;BME280;2901;42.140;24.760;2024-02-21T12:24:44;100031.66;;;15.78;48.06
5753;BME280;2901;42.140;24.760;2024-02-21T12:27:13;100027.84;;;15.94;48.11
5753;BME280;2901;42.140;24.760;2024-02-21T12:29:38;100027.09;;;15.90;47.67
5753;BME280;2901;42.140;24.760;2024-02-21T12:32:04;100020.63;;;15.64;48.26
5753;BME280;2901;42.140;24.760;2024-02-21T12:34:30;100019.38;;;15.83;48.51
5753;BME280;2901;42.140;24.760;2024-02-21T12:36:58;100021.16;;;15.81;46.89
5753;BME280;2901;42.140;24.760;2024-02-21T12:39:24;100014.22;;;15.80;46.18
5753;BME280;2901;42.140;24.760;2024-02-21T12:41:49;100009.88;;;15.80;47.43
5753;BME280;2901;42.140;24.760;2024-02-21T12:44:15;100006.22;;;15.89;46.92
5753;BME280;2901;42.140;24.760;2024-02-21T12:46:41;100003.09;;;16.13;46.63
5753;BME280;2901;42.140;24.760;2024-02-21T12:49:07;99995.44;;;16.44;45.60
5753;BME280;2901;42.140;24.760;2024-02-21T12:51:35;99992.38;;;16.65;44.69
5753;BME280;2901;42.140;24.760;2024-02-21T12:54:01;99993.59;;;16.49;44.43
5753;BME280;2901;42.140;24.760;2024-02-21T12:56:28;99996.59;;;16.32;44.59